Upstream stations:
Downstream station:
SHEF ID: WANO2 Cimarron River near Waynoka, OK
STATION TYPE:
Regulating: Stage = 9.00, Flow = 4032
PRECIP STAGE RIV-FLOW BAT-LOAD
in ft cfs volt
Ccp-Rev Ccp-Rev Ccp-Rev Ccp-Rev
(US/Central)
02/06 00:00 0.00 5.73 51 12.73
02/06 01:00 0.00 5.72 49 12.73
02/06 02:00 0.00 5.72 49 12.73
02/06 03:00 0.00 5.81 66 12.65
02/06 04:00 0.00 5.81 66 12.65
02/06 05:00 0.00 5.80 64 12.65
02/06 06:00 0.00 5.79 62 12.65
02/06 07:00 0.00 5.77 58 12.65
02/06 08:00 0.00 5.77 58 12.65
02/06 09:00 0.00 5.76 56 12.81
02/06 10:00 0.00 5.74 53 13.53
02/06 11:00 0.00 5.72 49 14.00
02/06 12:00 0.00 5.72 49 13.76
02/06 13:00 0.00 5.72 49 13.68
02/06 14:00 0.00 5.70 46 13.68
02/06 15:00 0.00 5.70 46 13.68
02/06 16:00 0.00 5.71 48 13.68
02/06 17:00 0.00 5.70 46 13.53
02/06 18:00 0.00 5.69 45 13.53
02/06 19:00 0.00 5.69 45 13.21
02/06 20:00 0.00 5.68 43 12.97
02/06 21:00 0.00 5.68 43 12.81
02/06 22:00 0.00 5.68 43 12.81
02/06 23:00 0.00 5.68 43 12.81